Preview of NWS' New Version of Forecast
This preview is not operational and should not be used for support decisions.
Latest weather observations around

CATHEDRAL CANYON (EDRC1)

Using English Units (Switch to International System of Units)
Date/ Time (PDT) Wind (mph) Vis. (mi) Weather Sky Cond. Temp (°F) Rel. Humidity Wind Chill (°F) Heat Index (°F) Pressure Precip. (in)
Air Dwpt 6 hour Altimeter (inHg) Sea level (inHg) 1 hr 3 hr 6 hr
Max Min
May 26 13:52 NNW 11   Clear   81 42     25%   80          
May 26 12:52 NE 8   Clear   80 41     25%   79          
May 26 11:52 NE 6   Clear   79 43     28%   78          
May 26 10:52 NE 5   Clear   77 42     29%   76          
May 26 09:52 ENE 8   Clear   75 44     33%   74          
May 26 08:52 E 7   Clear   71 44     38%   70          
May 26 07:52 ENE 5   Clear   69 46     43%              
May 26 06:52 NE 2   Clear   67 47     48%              
May 26 05:52 S 5   Clear   62 45     53%              
May 26 04:52 NW 2   Clear   62 43     50%              
May 26 03:52 S 1   Clear   64 42     45%              
May 26 02:52 NW 1   Clear   65 45     48%              
May 26 01:52 SSW 4   Clear   70 37     30%              
May 26 00:52 NNE 3   Clear   67 46     46%              
May 25 23:52 NE 3   Clear   69 46     43%              
May 25 22:52 WSW 1   Clear   71 43     37%   70          
May 25 21:52 SSE 6   Clear   75 39     27%   73          
May 25 20:52 SW 4   Clear   76 39     26%   75          
May 25 19:52 WNW 5   Clear   79 39     24%   78          
May 25 18:52 SW 10   Clear   81 42     25%   80          
May 25 17:52 SW 12   Clear   84 41     22%   81          
May 25 16:52 N 3   Clear   89 40     18%   85          
May 25 15:52 NNE 7   Clear   87 41     20%   84          
May 25 14:52 NE 7   Clear   87 42     21%   84          
May 25 13:52 ESE 5   Clear   87 41     20%   84          
May 25 12:52 N 6   Clear   84 41     22%   81          
May 25 11:52 ENE 4   Clear   81 41     24%   80          
May 25 10:52 E 4   Clear   80 41     25%   79          
May 25 09:52 E 4   Clear   78 44     30%   77          
May 25 08:52 E 3   Clear   75 44     33%   74          
May 25 07:52 SE 2   Clear   72 46     39%   71          
May 25 06:52 NE 2   Clear   69 47     46%              
May 25 05:52 WNW 1   Clear   64 46     52%              
May 25 04:52 Calm   Clear   65 45     48%              
May 25 03:52 S 3   Clear   67 46     47%              
May 25 02:52 SW 2   Clear   68 47     47%              
May 25 01:52 S 1   Clear   68 48     49%              
May 25 00:52 WNW 1   Clear   69 48     48%              
May 24 23:52 ESE 1   Clear   70 49     48%              
May 24 22:52 ESE 4   Clear   73 50     44%   72          
May 24 21:52 NE 3   Clear   76 49     38%   75          
May 24 20:52 NNW 5   Clear   79 50     36%   78          
May 24 19:52 NW 7   Clear   81 50     34%   80          
May 24 18:52 NNW 7   Clear   85 51     31%   83          
May 24 17:52 N 10   Clear   88 50     27%   85          
May 24 16:52 NNW 11   Clear   89 51     27%   86          
May 24 15:52 NNE 8   Clear   90 49     25%   87          
May 24 14:52 N 5   Clear   90 49     25%   87          
May 24 13:52 ENE 3   Clear   88 49     26%   85          
May 24 12:52 ENE 5   Clear   86 50     29%   84          
May 24 11:52 NE 4   Clear   83 52     34%   82          
May 24 10:52 ENE 5   Clear   80 51     36%   79          
May 24 09:52 ESE 5   Clear   78 53     42%   77          
May 24 08:52 E 6   Clear   75 53     47%   74          
May 24 07:52 ENE 3   Clear   71 55     56%   70          
May 24 06:52 SE 2   Clear   69 54     58%              
May 24 05:52 Calm   Clear   65 53     66%              
May 24 04:52 SSW 3   Clear   68 53     58%              
May 24 03:52 W 1   Clear   66 53     64%              
May 24 02:52 Calm   Clear   67 53     61%              
May 24 01:52 Calm   Clear   69 53     57%              
May 24 00:52 S 3   Clear   71 54     54%   70          
May 23 23:52 E 1   Clear   72 52     50%   71          
May 23 22:52 ENE 2   Clear   76 52     43%   75          
May 23 21:52 SE 3   Clear   79 50     37%   78          
May 23 20:52 NNW 4   Clear   82 49     32%   81          
May 23 19:52 N 5   Clear   84 48     29%   82          
May 23 18:52 N 7   Clear   87 48     26%   84          
May 23 17:52 ENE 5   Clear   90 44     20%   86          
May 23 16:52 N 5   Clear   90 45     21%   86          
May 23 15:52 ESE 6   Clear   89 46     23%   86          
May 23 14:52 ENE 6   Clear   89 49     25%   86          
May 23 13:52 E 3   Clear   87 49     27%   84          
May 23 12:52 ENE 4   Clear   85 49     29%   83          
May 23 11:52 E 4   Clear   82 50     33%   81          
May 23 10:52 NE 5   Clear   80 51     36%   79          
May 23 09:52 E 5   Clear   76 51     41%   75          
May 23 08:52 E 7   Clear   73 51     46%   72          
May 23 07:52 E 5   Clear   72 51     48%   71          
May 14 23:52 SSW 2   Clear   73 47     39%   72          
Notice The following observation data may not be complete
May 14 21:52     Clear            %              
Notice The following observation data may not be complete
May 14 16:52     Clear            %              
May 14 06:52 Calm   Clear   66 49     54%              
May 13 11:52     Clear   78 43     29%   77          
May 13 06:52 Calm   Clear   66 45     47%              
Notice The following observation data may not be complete
May 12 10:52     Clear            %              
May 12 04:52 SSE 1   Clear   62 44     51%              
May 12 00:52 NNW 2   Clear   65 45     49%              
May 11 23:52 WNW 1   Clear   66 45     46%              
Notice The following observation data may not be complete
May 11 21:52     Clear            %              
May 11 20:52     Clear   71 43     37%   70          
Notice The following observation data may not be complete
May 11 18:52     Clear            %              
Notice The following observation data may not be complete
May 11 09:52     Clear            %              
Jun 11 20:52 SW 14   Clear   74 38     27%   72          
Jun 11 15:52 NE 6   Clear   86 43     22%   83          
Jun 11 12:52     Clear   82 46     28%   80          
Jun 11 02:52 SSE 3   Clear   68 47     47%              
Jun 09 23:52 SE 2   Clear   79 47     33%   78          
Jun 09 09:52 NNE 3   Clear   89 45     22%   86          
Jun 09 07:52 ESE 1   Clear   82 48     31%   81          
Jun 07 19:52 NNE 2   Clear   93 50     23%   90